Time;durP1;ratioP1;P1;durP2;ratioP2;P2;SDS_P1;SDS_P2;PMS_P1;PMS_P2;Temp;Humidity;BMP_temperature;BMP_pressure;BME280_temperature;BME280_humidity;BME280_pressure;Samples;Min_cycle;Max_cycle;Signal;HPM_P1;HPM_P2
2022/04/18 00:01:49;;;;;;;1.90;1.80;;;;;;;3.99;62.02;94602.44;4974089;28;20037;-76
2022/04/18 00:04:14;;;;;;;1.73;1.70;;;;;;;3.83;62.38;94601.81;4990451;28;20073;-76
2022/04/18 00:06:40;;;;;;;5.75;1.85;;;;;;;3.89;61.98;94595.09;4990532;28;20076;-77
2022/04/18 00:09:05;;;;;;;2.72;2.08;;;;;;;3.81;62.54;94597.84;4990194;28;20046;-77
2022/04/18 00:11:31;;;;;;;2.45;2.35;;;;;;;3.72;62.31;94586.16;4998331;28;20026;-77
2022/04/18 00:13:56;;;;;;;2.10;2.00;;;;;;;3.58;62.73;94587.91;5006575;28;20679;-77
2022/04/18 00:16:22;;;;;;;3.30;3.00;;;;;;;3.41;63.22;94597.72;4991655;28;20027;-77
2022/04/18 00:18:48;;;;;;;9.70;2.72;;;;;;;3.56;62.90;94597.56;4998026;28;20574;-77
2022/04/18 00:21:23;;;;;;;2.97;2.58;;;;;;;3.63;62.44;94595.03;5005603;28;20027;-77
2022/04/18 00:23:49;;;;;;;2.80;2.60;;;;;;;3.86;62.17;94596.28;4989522;28;20031;-77
2022/04/18 00:26:14;;;;;;;2.80;2.60;;;;;;;3.98;62.15;94583.63;4991751;28;20049;-77
2022/04/18 00:28:39;;;;;;;2.55;2.30;;;;;;;4.12;61.39;94581.88;4989663;28;20049;-77
2022/04/18 00:31:05;;;;;;;2.40;2.30;;;;;;;4.26;60.97;94577.53;5006421;28;20100;-77
2022/04/18 00:33:31;;;;;;;2.55;2.35;;;;;;;4.27;60.21;94576.53;4991636;28;20062;-77
2022/04/18 00:35:56;;;;;;;2.55;2.35;;;;;;;4.16;60.20;94576.13;5006610;28;20041;-77
2022/04/18 00:38:22;;;;;;;2.50;2.30;;;;;;;4.27;60.45;94579.09;4989889;28;20064;-77
2022/04/18 00:40:47;;;;;;;3.65;2.47;;;;;;;4.36;59.85;94576.09;4998313;28;20533;-77
2022/04/18 00:43:13;;;;;;;2.25;2.15;;;;;;;4.39;59.40;94575.75;4991142;28;20030;-77
2022/04/18 00:45:38;;;;;;;2.58;2.40;;;;;;;4.48;59.34;94571.94;4990080;28;20104;-77
2022/04/18 00:48:04;;;;;;;3.03;2.30;;;;;;;4.27;60.14;94571.38;4989925;28;20037;-77
2022/04/18 00:50:30;;;;;;;2.28;2.17;;;;;;;4.45;59.55;94569.00;5014087;28;20027;-77
2022/04/18 00:52:56;;;;;;;2.30;2.20;;;;;;;4.38;59.38;94568.19;5013647;28;20046;-77
2022/04/18 00:55:22;;;;;;;2.38;2.28;;;;;;;4.25;60.08;94561.28;4989683;28;20039;-77
2022/04/18 00:57:47;;;;;;;2.17;2.08;;;;;;;4.11;60.03;94572.56;4989868;28;20075;-77
2022/04/18 01:00:13;;;;;;;2.53;2.35;;;;;;;4.01;60.61;94562.66;5006207;28;20502;-77
2022/04/18 01:02:38;;;;;;;2.33;2.22;;;;;;;4.11;60.23;94572.56;4989804;28;20046;-77
2022/04/18 01:05:04;;;;;;;2.30;2.20;;;;;;;3.88;61.06;94570.34;4989750;28;20034;-77
2022/04/18 01:07:30;;;;;;;2.05;1.92;;;;;;;3.84;61.14;94564.81;5005394;28;20042;-77
2022/04/18 01:09:55;;;;;;;2.42;2.30;;;;;;;3.85;61.22;94568.19;4988792;28;20033;-77
2022/04/18 01:12:21;;;;;;;2.75;2.55;;;;;;;3.86;60.95;94569.75;5013606;28;20041;-77
2022/04/18 01:14:49;;;;;;;2.15;2.05;;;;;;;3.68;61.51;94556.69;4990875;28;20030;-77
2022/04/18 01:17:15;;;;;;;2.00;1.90;;;;;;;3.67;61.65;94560.25;4989364;28;20045;-76
2022/04/18 01:19:41;;;;;;;3.47;2.60;;;;;;;3.37;62.33;94565.69;4973284;28;20034;-76
2022/04/18 01:22:07;;;;;;;2.20;2.10;;;;;;;3.40;63.21;94560.16;4989659;28;20045;-77
2022/04/18 01:30:01;;;;;;;2.40;2.30;;;;;;;3.41;63.41;94548.09;4989149;28;20157;-77
2022/04/18 01:32:27;;;;;;;2.15;2.05;;;;;;;3.30;64.03;94549.47;4989590;28;20042;-76
2022/04/18 01:34:52;;;;;;;2.67;2.58;;;;;;;3.26;64.16;94543.13;5013644;28;20459;-77
2022/04/18 01:37:18;;;;;;;3.75;2.78;;;;;;;3.35;64.04;94539.41;4989119;28;20022;-77
2022/04/18 01:39:43;;;;;;;3.13;2.60;;;;;;;3.59;62.96;94533.72;4988999;28;20034;-77
2022/04/18 01:42:08;;;;;;;3.05;2.83;;;;;;;3.54;63.19;94530.16;4990594;28;20112;-77
2022/04/18 01:44:34;;;;;;;2.53;2.38;;;;;;;3.63;62.83;94525.63;4989111;28;20518;-76
2022/04/18 01:47:18;;;;;;;2.70;2.53;;;;;;;3.69;62.97;94523.06;4989069;28;20030;-76
2022/04/18 01:49:44;;;;;;;5.32;2.70;;;;;;;3.83;62.37;94523.84;4990199;28;20053;-76
2022/04/18 01:52:09;;;;;;;2.80;2.60;;;;;;;3.89;61.97;94516.13;4990270;28;20030;-76
2022/04/18 01:54:35;;;;;;;3.05;2.85;;;;;;;3.87;62.28;94510.41;5005137;28;20046;-76
2022/04/18 01:57:00;;;;;;;2.60;2.50;;;;;;;3.87;61.77;94514.75;4990209;28;20364;-76
2022/04/18 01:59:25;;;;;;;2.47;2.38;;;;;;;3.88;61.82;94511.19;4996564;28;20053;-76
2022/04/18 02:01:51;;;;;;;3.30;2.20;;;;;;;3.94;61.66;94504.47;5012637;28;20071;-76
2022/04/18 02:04:16;;;;;;;2.40;2.30;;;;;;;4.04;61.31;94507.44;4990211;28;20466;-75
2022/04/18 02:06:42;;;;;;;2.50;2.30;;;;;;;4.20;61.03;94515.53;4997080;28;20022;-75
2022/04/18 02:09:07;;;;;;;2.70;2.58;;;;;;;3.99;61.05;94510.59;5013563;28;20038;-75
2022/04/18 02:11:33;;;;;;;4.22;2.60;;;;;;;3.92;61.54;94508.03;4989994;28;20034;-75
2022/04/18 02:13:58;;;;;;;2.72;2.63;;;;;;;3.52;62.24;94507.22;4996702;28;20064;-76
2022/04/18 02:16:23;;;;;;;2.58;2.47;;;;;;;3.26;63.43;94502.81;5005209;28;20445;-75
2022/04/18 02:18:49;;;;;;;2.67;2.47;;;;;;;3.35;63.69;94500.84;5004731;28;20042;-77
2022/04/18 02:21:16;;;;;;;2.63;2.53;;;;;;;3.39;63.68;94496.91;4989101;28;20042;-76
2022/04/18 02:23:42;;;;;;;4.45;2.80;;;;;;;3.41;63.06;94499.28;4990198;28;20616;-76
2022/04/18 02:26:08;;;;;;;3.20;2.45;;;;;;;3.45;62.93;94490.19;4988799;28;20045;-76
2022/04/18 02:28:33;;;;;;;2.83;2.72;;;;;;;3.21;63.94;94494.88;5013157;28;20042;-76
2022/04/18 02:30:58;;;;;;;2.53;2.42;;;;;;;3.15;64.53;94493.09;5014497;28;20026;-76
2022/04/18 02:33:24;;;;;;;2.70;2.58;;;;;;;3.30;64.47;94498.06;5004882;28;20543;-76
2022/04/18 02:35:49;;;;;;;2.70;2.50;;;;;;;3.45;64.02;94491.00;4988661;28;20548;-76
2022/04/18 02:38:15;;;;;;;2.22;2.13;;;;;;;3.64;62.97;94493.78;4989700;28;20490;-76
2022/04/18 02:40:40;;;;;;;2.00;1.90;;;;;;;3.55;63.25;94498.31;4989873;28;20089;-76
2022/04/18 02:43:06;;;;;;;2.03;1.92;;;;;;;3.17;63.76;94495.47;4988762;28;20034;-76
2022/04/18 02:45:32;;;;;;;2.63;2.42;;;;;;;2.88;65.05;94499.91;5013054;28;20085;-76
2022/04/18 02:47:58;;;;;;;2.97;2.30;;;;;;;2.77;66.04;94497.91;4989174;28;20033;-76
2022/04/18 02:50:24;;;;;;;2.45;2.30;;;;;;;2.63;66.33;94491.91;4988856;28;20030;-76
2022/04/18 02:52:49;;;;;;;2.50;2.30;;;;;;;2.62;66.56;94502.38;5012959;28;20042;-76
2022/04/18 02:55:14;;;;;;;2.65;2.55;;;;;;;2.63;66.96;94496.25;5013005;28;20034;-76
2022/04/18 02:57:40;;;;;;;3.00;2.58;;;;;;;2.63;67.28;94491.13;4989054;28;20037;-75
2022/04/18 03:00:07;;;;;;;2.50;2.28;;;;;;;2.67;66.81;94502.59;4988175;28;20035;-76
2022/04/18 03:02:33;;;;;;;2.45;2.35;;;;;;;2.64;66.55;94508.13;4988303;28;20058;-76
2022/04/18 03:04:58;;;;;;;2.17;2.08;;;;;;;2.64;66.99;94500.41;4989436;28;20126;-76
2022/04/18 03:07:23;;;;;;;1.80;1.70;;;;;;;2.56;66.73;94498.78;4989249;28;20031;-76
2022/04/18 03:09:49;;;;;;;1.90;1.80;;;;;;;2.44;67.28;94484.91;5004645;28;20023;-76
2022/04/18 03:12:14;;;;;;;1.98;1.88;;;;;;;2.35;67.87;94486.84;5004725;28;20038;-75
2022/04/18 03:14:40;;;;;;;1.73;1.63;;;;;;;2.53;67.34;94485.53;4992548;28;20030;-76
2022/04/18 03:17:05;;;;;;;1.50;1.50;;;;;;;2.62;67.15;94489.53;4991055;28;20178;-76
2022/04/18 03:19:30;;;;;;;1.55;1.55;;;;;;;2.67;66.09;94482.06;4990868;28;20092;-75
2022/04/18 03:21:56;;;;;;;1.40;1.40;;;;;;;2.57;66.77;94486.75;4991432;28;20367;-76
2022/04/18 03:24:21;;;;;;;2.15;1.95;;;;;;;2.66;66.38;94480.47;4974934;28;20037;-75
2022/04/18 03:26:47;;;;;;;1.77;1.75;;;;;;;2.83;65.83;94488.66;5022932;28;20034;-76
2022/04/18 03:29:12;;;;;;;2.00;1.90;;;;;;;2.73;66.27;94486.41;4992244;28;20046;-75
2022/04/18 03:31:38;;;;;;;2.05;1.95;;;;;;;2.87;65.90;94493.19;4991170;28;20029;-75
2022/04/18 03:34:03;;;;;;;1.90;1.80;;;;;;;2.90;65.95;94487.66;4992517;28;20030;-75
2022/04/18 03:41:56;;;;;;;2.10;2.00;;;;;;;2.77;65.85;94490.22;4992080;28;20100;-75
2022/04/18 03:44:22;;;;;;;2.03;1.92;;;;;;;2.90;66.15;94487.66;4990609;28;20479;-77
2022/04/18 03:46:47;;;;;;;2.40;2.30;;;;;;;2.97;65.64;94483.38;5007233;28;20057;-76
2022/04/18 03:49:13;;;;;;;2.20;2.10;;;;;;;2.96;65.07;94492.06;4998965;28;20556;-77
2022/04/18 03:51:38;;;;;;;2.15;2.05;;;;;;;2.73;65.95;94494.13;4992205;28;20629;-76
2022/04/18 03:54:04;;;;;;;4.00;2.30;;;;;;;2.55;66.83;94489.50;4990245;28;20116;-77
2022/04/18 03:56:29;;;;;;;2.22;2.13;;;;;;;2.65;66.27;94484.03;5007220;28;20022;-76
2022/04/18 03:58:55;;;;;;;3.17;2.97;;;;;;;2.68;66.23;94488.78;4992049;28;20108;-77
2022/04/18 04:01:20;;;;;;;2.47;2.38;;;;;;;2.69;66.11;94490.34;5007806;28;20041;-77
2022/04/18 04:03:46;;;;;;;2.50;2.30;;;;;;;2.58;66.74;94489.13;4990684;28;20088;-77
2022/04/18 04:06:11;;;;;;;2.72;2.63;;;;;;;2.70;66.43;94497.88;5006982;28;20084;-77
2022/04/18 04:08:37;;;;;;;2.30;2.20;;;;;;;2.80;66.04;94492.38;4974270;28;20038;-77
2022/04/18 04:11:05;;;;;;;2.90;2.70;;;;;;;2.76;65.85;94501.44;4993174;28;20422;-77
2022/04/18 04:13:31;;;;;;;3.30;3.10;;;;;;;2.66;66.64;94501.00;5014199;28;20057;-77
2022/04/18 04:15:56;;;;;;;2.92;2.72;;;;;;;2.57;66.81;94497.00;5017792;28;20057;-77
2022/04/18 04:18:21;;;;;;;2.88;2.67;;;;;;;2.50;66.93;94504.69;4991862;28;20034;-76
2022/04/18 04:20:47;;;;;;;3.05;2.92;;;;;;;2.57;66.65;94492.66;4991574;28;20037;-77
2022/04/18 04:23:12;;;;;;;3.50;2.97;;;;;;;2.54;66.61;94497.38;4998064;28;20046;-76
2022/04/18 04:25:38;;;;;;;3.92;3.58;;;;;;;2.51;65.80;94501.13;4990894;28;20042;-76
2022/04/18 04:28:03;;;;;;;3.80;3.50;;;;;;;2.41;66.65;94493.75;4991290;28;20082;-77
2022/04/18 04:30:29;;;;;;;3.67;3.35;;;;;;;2.46;66.40;94495.78;5006475;28;20480;-76
2022/04/18 04:32:54;;;;;;;3.75;3.45;;;;;;;2.59;66.23;94500.16;5006129;28;20408;-76
2022/04/18 04:35:20;;;;;;;3.92;3.63;;;;;;;2.69;65.64;94495.50;4991120;28;20034;-75
2022/04/18 04:37:45;;;;;;;3.53;3.28;;;;;;;2.58;66.05;94501.16;4989662;28;20144;-75
2022/04/18 04:40:11;;;;;;;4.45;4.13;;;;;;;2.56;66.74;94503.91;4997169;28;20037;-75
2022/04/18 04:42:38;;;;;;;4.93;4.45;;;;;;;2.62;66.16;94510.09;4988802;28;20026;-75
2022/04/18 04:45:04;;;;;;;5.40;5.00;;;;;;;2.75;66.19;94502.41;4989749;28;20439;-76
2022/04/18 04:47:29;;;;;;;8.25;4.22;;;;;;;3.05;65.11;94510.63;5014080;28;20044;-76
2022/04/18 04:49:55;;;;;;;4.50;4.20;;;;;;;3.19;64.00;94516.63;4990617;28;20042;-77
2022/04/18 04:52:20;;;;;;;5.00;4.60;;;;;;;3.31;63.55;94505.59;5005911;28;20026;-77
2022/04/18 04:54:46;;;;;;;4.40;4.10;;;;;;;3.41;63.54;94500.06;5006550;28;20034;-75
2022/04/18 04:57:11;;;;;;;4.50;4.20;;;;;;;3.67;63.24;94499.31;4989477;28;20122;-77
2022/04/18 04:59:37;;;;;;;6.63;4.30;;;;;;;4.06;61.48;94493.38;5005529;28;20034;-76
2022/04/18 05:02:03;;;;;;;4.35;4.05;;;;;;;4.29;60.31;94502.47;4989420;28;20058;-77
2022/04/18 05:04:28;;;;;;;4.13;3.83;;;;;;;4.28;59.78;94506.03;4990615;28;20030;-76
2022/04/18 05:06:54;;;;;;;6.32;3.70;;;;;;;4.26;60.22;94502.88;5005995;28;20030;-76
2022/04/18 05:09:19;;;;;;;4.07;3.78;;;;;;;4.14;60.39;94495.75;5005924;28;20038;-77
2022/04/18 05:11:46;;;;;;;4.13;3.83;;;;;;;4.24;60.04;94500.50;5007518;28;20469;-77
2022/04/18 05:14:12;;;;;;;4.57;4.18;;;;;;;4.47;59.74;94500.06;4991161;28;20085;-76
2022/04/18 05:16:39;;;;;;;4.57;4.13;;;;;;;4.40;59.28;94499.31;4990404;28;20034;-76
2022/04/18 05:19:05;;;;;;;8.75;4.60;;;;;;;4.50;59.31;94504.81;5005137;28;20026;-76
2022/04/18 05:21:30;;;;;;;7.50;3.45;;;;;;;4.45;59.08;94502.84;4989536;28;20093;-76
2022/04/18 05:23:56;;;;;;;3.78;3.47;;;;;;;4.42;59.27;94505.81;4991467;28;20038;-77
2022/04/18 05:26:21;;;;;;;7.38;3.65;;;;;;;4.52;58.81;94507.97;4990718;28;20112;-77
2022/04/18 05:28:47;;;;;;;4.05;3.75;;;;;;;4.69;58.70;94508.31;5012915;28;20465;-76
2022/04/18 05:31:12;;;;;;;3.67;3.47;;;;;;;4.78;57.45;94512.28;4989318;28;20037;-76
2022/04/18 05:33:37;;;;;;;3.70;3.42;;;;;;;5.01;57.24;94501.47;4990635;28;20514;-77
2022/04/18 05:36:03;;;;;;;7.80;3.60;;;;;;;5.21;56.58;94512.50;4988770;28;20048;-76
2022/04/18 05:38:28;;;;;;;5.07;3.70;;;;;;;5.38;56.26;94512.81;5013295;28;20061;-76
2022/04/18 05:40:54;;;;;;;6.28;3.40;;;;;;;5.27;56.52;94518.63;4989197;28;20034;-76
2022/04/18 05:43:19;;;;;;;6.75;3.40;;;;;;;5.02;57.40;94513.34;4990828;28;20429;-76
2022/04/18 05:45:48;;;;;;;4.70;4.30;;;;;;;4.87;56.60;94530.84;4972984;28;20421;-76
2022/04/18 05:48:13;;;;;;;8.18;3.42;;;;;;;4.82;57.65;94524.53;5013075;28;20094;-76
2022/04/18 05:50:45;;;;;;;3.92;3.50;;;;;;;4.71;57.76;94517.41;4990628;28;20466;-76
2022/04/18 05:53:10;;;;;;;4.05;3.65;;;;;;;4.86;57.13;94531.84;4996721;28;20114;-76
2022/04/18 05:55:37;;;;;;;3.30;3.10;;;;;;;4.49;57.14;94523.81;4988493;28;20050;-76
2022/04/18 05:58:02;;;;;;;4.05;3.67;;;;;;;4.37;58.00;94525.41;4971462;28;20034;-76
2022/04/18 06:00:28;;;;;;;3.75;3.55;;;;;;;4.50;58.36;94525.41;5005096;28;20623;-76
2022/04/18 06:02:55;;;;;;;4.28;3.75;;;;;;;4.51;58.07;94534.72;5005238;28;20050;-76
2022/04/18 06:05:20;;;;;;;4.97;3.97;;;;;;;4.19;59.12;94528.59;4989281;28;20096;-76
2022/04/18 06:07:46;;;;;;;4.38;4.07;;;;;;;4.27;58.88;94535.34;5005300;28;20026;-76
2022/04/18 06:10:11;;;;;;;3.80;3.60;;;;;;;4.65;58.56;94543.22;4988683;28;20048;-76
2022/04/18 06:12:37;;;;;;;3.47;3.28;;;;;;;4.94;57.80;94539.38;4988760;28;20038;-77
2022/04/18 06:15:03;;;;;;;5.10;3.92;;;;;;;4.73;58.14;94536.06;4989057;28;20037;-76
2022/04/18 06:17:28;;;;;;;4.03;3.75;;;;;;;4.90;56.98;94531.25;4991913;28;20030;-78
2022/04/18 06:19:54;;;;;;;5.07;3.90;;;;;;;5.00;57.68;94530.81;4990655;28;20049;-76
2022/04/18 06:22:19;;;;;;;8.50;4.32;;;;;;;4.92;57.58;94539.56;5006441;28;20022;-76
2022/04/18 06:24:44;;;;;;;3.65;3.35;;;;;;;5.14;58.17;94537.50;4988955;28;20164;-77
2022/04/18 06:27:10;;;;;;;3.88;3.15;;;;;;;5.72;54.54;94540.00;4990322;28;20026;-76
2022/04/18 06:29:36;;;;;;;3.63;3.25;;;;;;;6.05;53.56;94533.84;4987105;28;20045;-76
2022/04/18 06:32:01;;;;;;;3.28;3.08;;;;;;;6.04;54.11;94527.91;4989557;28;20118;-77
2022/04/18 06:34:27;;;;;;;3.20;3.00;;;;;;;6.30;53.74;94526.88;4989536;28;20422;-77
2022/04/18 06:36:53;;;;;;;3.53;3.30;;;;;;;6.80;51.52;94535.34;4987898;28;20581;-77
2022/04/18 06:39:18;;;;;;;4.22;3.65;;;;;;;7.14;51.67;94531.38;5003811;28;20038;-77
2022/04/18 06:41:44;;;;;;;3.25;3.05;;;;;;;7.08;50.80;94540.03;4987126;28;20041;-77
2022/04/18 06:44:09;;;;;;;2.58;2.42;;;;;;;6.57;52.42;94530.81;4995470;28;20390;-77
2022/04/18 06:46:34;;;;;;;3.63;3.33;;;;;;;6.32;52.60;94532.63;4989883;28;20034;-77
2022/04/18 06:49:00;;;;;;;3.60;3.20;;;;;;;6.06;54.23;94530.28;4991509;28;20034;-77
2022/04/18 06:51:25;;;;;;;3.63;3.33;;;;;;;6.38;53.77;94528.41;4991688;28;20034;-77
2022/04/18 06:53:51;;;;;;;7.45;3.03;;;;;;;6.65;52.67;94539.28;5015815;28;20465;-77
2022/04/18 06:59:00;;;;;;;3.05;2.85;;;;;;;6.91;52.10;94539.81;4991584;28;20422;-77
2022/04/18 07:01:26;;;;;;;4.25;2.70;;;;;;;6.82;52.47;94545.47;4993258;28;20490;-77
2022/04/18 07:03:51;;;;;;;3.10;2.90;;;;;;;7.08;52.16;94544.41;5017782;28;20038;-77
2022/04/18 07:06:16;;;;;;;3.60;3.30;;;;;;;6.25;53.45;94544.81;4994431;28;20023;-77
2022/04/18 07:08:42;;;;;;;3.13;2.92;;;;;;;5.30;56.46;94552.50;5000306;28;20418;-76
2022/04/18 07:11:07;;;;;;;3.25;3.08;;;;;;;5.73;56.07;94549.31;4991305;28;20437;-77
2022/04/18 07:13:33;;;;;;;4.05;3.50;;;;;;;5.24;56.44;94540.44;4992480;28;20101;-76
2022/04/18 07:16:00;;;;;;;3.75;3.42;;;;;;;4.98;57.39;94535.38;5008302;28;20046;-76
2022/04/18 07:18:25;;;;;;;4.15;3.78;;;;;;;4.99;58.54;94555.00;4991363;28;20049;-78
2022/04/18 07:20:51;;;;;;;3.22;3.05;;;;;;;4.78;58.19;94556.84;4992118;28;20030;-75
2022/04/18 07:23:16;;;;;;;4.97;3.92;;;;;;;4.73;59.50;94556.66;4992470;28;20061;-76
2022/04/18 07:25:42;;;;;;;3.70;3.42;;;;;;;4.99;57.68;94560.16;4991883;28;20483;-75
2022/04/18 07:28:07;;;;;;;3.03;2.83;;;;;;;4.56;60.09;94554.72;4974727;28;20030;-75
2022/04/18 07:30:32;;;;;;;3.25;3.05;;;;;;;4.95;59.10;94553.84;4991909;28;20038;-77
2022/04/18 07:32:58;;;;;;;4.75;3.67;;;;;;;5.38;57.71;94544.56;4992068;28;20391;-77
2022/04/18 07:35:24;;;;;;;3.13;2.92;;;;;;;5.90;56.67;94547.84;5015580;28;20034;-77
2022/04/18 07:40:33;;;;;;;3.33;3.13;;;;;;;5.94;54.56;94546.44;4992545;28;20045;-78
2022/04/18 07:42:59;;;;;;;3.35;3.05;;;;;;;5.91;55.52;94554.59;5007490;28;20030;-77
2022/04/18 07:45:24;;;;;;;3.08;2.78;;;;;;;5.78;54.40;94554.63;4991745;28;20053;-76
2022/04/18 07:47:53;;;;;;;4.93;2.55;;;;;;;5.26;56.25;94561.66;4998743;28;20436;-76
2022/04/18 07:50:18;;;;;;;2.80;2.65;;;;;;;5.19;56.34;94570.41;5007118;28;20049;-76
2022/04/18 07:52:44;;;;;;;2.80;2.70;;;;;;;4.89;57.06;94559.81;4991888;28;20034;-77
2022/04/18 07:55:10;;;;;;;3.08;2.97;;;;;;;4.84;57.38;94562.97;4990429;28;20065;-76
2022/04/18 07:57:37;;;;;;;4.63;3.25;;;;;;;5.09;57.97;94578.56;5007306;28;20041;-76
2022/04/18 08:00:04;;;;;;;3.30;3.00;;;;;;;5.19;57.05;94571.19;4990452;28;20038;-77
2022/04/18 08:02:30;;;;;;;3.20;3.00;;;;;;;5.19;56.15;94558.28;4991745;28;20046;-76
2022/04/18 08:04:55;;;;;;;7.35;3.20;;;;;;;5.34;57.01;94566.56;4991031;28;20038;-77
2022/04/18 08:07:21;;;;;;;2.60;2.50;;;;;;;5.61;56.88;94556.13;4990666;28;20040;-76
2022/04/18 08:09:46;;;;;;;2.85;2.65;;;;;;;5.76;54.49;94561.78;4990122;28;20034;-77
2022/04/18 08:12:12;;;;;;;2.70;2.60;;;;;;;5.81;54.70;94559.38;4991883;28;20115;-77
2022/04/18 08:14:38;;;;;;;3.30;3.03;;;;;;;5.92;54.72;94556.16;4991693;28;20034;-77
2022/04/18 08:17:03;;;;;;;2.63;2.53;;;;;;;6.20;53.37;94549.81;5015182;28;20441;-77
2022/04/18 08:19:29;;;;;;;3.78;3.47;;;;;;;6.05;53.88;94559.66;4991546;28;20031;-76
2022/04/18 08:21:55;;;;;;;3.00;2.80;;;;;;;5.87;54.72;94558.56;4990254;28;20125;-77
2022/04/18 08:24:21;;;;;;;3.33;3.08;;;;;;;5.68;54.94;94559.44;5006167;28;20042;-76
2022/04/18 08:26:47;;;;;;;5.57;2.95;;;;;;;5.71;54.28;94566.78;4991146;28;20394;-77
2022/04/18 08:29:13;;;;;;;2.65;2.55;;;;;;;5.53;55.89;94566.66;4997905;28;20065;-76
2022/04/18 08:31:38;;;;;;;9.18;2.80;;;;;;;5.79;54.76;94556.22;4991350;28;20524;-77
2022/04/18 08:34:04;;;;;;;3.35;2.97;;;;;;;5.91;55.01;94569.28;5006513;28;20018;-77
2022/04/18 08:36:29;;;;;;;3.28;2.83;;;;;;;5.97;54.71;94551.16;4989859;28;20493;-77
2022/04/18 08:38:55;;;;;;;3.25;3.05;;;;;;;5.71;55.15;94559.84;5014261;28;20525;-77
2022/04/18 08:41:22;;;;;;;4.63;2.90;;;;;;;5.76;54.14;94561.78;5006369;28;20037;-77
2022/04/18 08:43:47;;;;;;;2.70;2.50;;;;;;;5.74;53.54;94558.63;4991220;28;20096;-77
2022/04/18 08:46:13;;;;;;;2.10;2.00;;;;;;;5.88;52.44;94560.13;5006290;28;20050;-77
2022/04/18 08:54:07;;;;;;;2.20;2.10;;;;;;;6.23;52.34;94563.09;5004103;28;20050;-77
2022/04/18 08:56:33;;;;;;;2.20;2.10;;;;;;;6.27;51.92;94553.13;4997997;28;20042;-77
2022/04/18 08:58:59;;;;;;;3.15;2.03;;;;;;;6.26;51.93;94561.88;4989346;28;20168;-77
2022/04/18 09:01:24;;;;;;;2.28;2.05;;;;;;;6.53;51.64;94552.13;5006195;28;20467;-77
2022/04/18 09:03:50;;;;;;;2.58;2.40;;;;;;;6.61;52.08;94550.03;5006018;28;20117;-77
2022/04/18 09:06:15;;;;;;;2.58;2.38;;;;;;;6.75;51.89;94545.53;5005903;28;20492;-77
2022/04/18 09:08:52;;;;;;;2.80;2.60;;;;;;;6.41;52.37;94551.22;5004985;28;20046;-77
2022/04/18 09:11:47;;;;;;;2.35;2.25;;;;;;;6.78;51.30;94546.91;5004225;28;20113;-77
2022/04/18 09:14:15;;;;;;;2.78;2.60;;;;;;;7.13;50.60;94542.72;4987880;28;20399;-77
2022/04/18 09:16:41;;;;;;;3.42;2.40;;;;;;;7.01;49.45;94541.13;4989737;28;20034;-77
2022/04/18 09:19:12;;;;;;;3.20;2.20;;;;;;;6.65;49.50;94539.28;4989483;28;20052;-77
2022/04/18 09:21:57;;;;;;;2.47;2.28;;;;;;;6.26;50.35;94546.38;5006251;28;20054;-78
2022/04/18 09:24:32;;;;;;;2.15;2.05;;;;;;;6.31;51.01;94542.16;4989970;28;20038;-78
2022/04/18 09:27:12;;;;;;;2.40;2.25;;;;;;;6.60;50.29;94542.50;4992751;28;20561;-78
2022/04/18 09:29:40;;;;;;;3.17;2.10;;;;;;;6.51;50.43;94543.81;4991368;28;20035;-76
2022/04/18 09:32:10;;;;;;;2.55;2.45;;;;;;;6.57;50.68;94530.81;4991263;28;20050;-77
2022/04/18 09:34:37;;;;;;;1.90;1.80;;;;;;;6.68;50.35;94539.66;4990127;28;20042;-77
2022/04/18 09:37:17;;;;;;;2.63;2.42;;;;;;;6.43;51.62;94534.53;4989619;28;20038;-77
2022/04/18 09:39:43;;;;;;;4.07;1.83;;;;;;;6.70;50.74;94531.69;5013215;28;20042;-77
2022/04/18 09:42:10;;;;;;;1.60;1.50;;;;;;;6.84;49.27;94526.19;5022117;28;20088;-77
2022/04/18 09:44:37;;;;;;;1.85;1.75;;;;;;;6.77;49.18;94532.41;4989730;28;20040;-77
2022/04/18 09:47:03;;;;;;;1.85;1.75;;;;;;;6.52;47.92;94533.25;4989700;28;20039;-77
2022/04/18 09:49:36;;;;;;;1.85;1.75;;;;;;;6.53;48.52;94534.03;4989982;28;20117;-76
2022/04/18 09:52:02;;;;;;;4.00;2.10;;;;;;;6.62;48.62;94532.75;5021212;28;20519;-77
2022/04/18 09:54:27;;;;;;;2.13;1.83;;;;;;;6.35;50.07;94528.84;5005211;28;20075;-76
2022/04/18 09:56:53;;;;;;;1.80;1.70;;;;;;;6.49;49.39;94525.91;4988944;28;20041;-77
2022/04/18 09:59:19;;;;;;;4.00;2.10;;;;;;;6.30;50.72;94522.50;4988717;28;20038;-76
2022/04/18 10:01:44;;;;;;;2.10;2.00;;;;;;;6.55;50.99;94524.28;5013175;28;20092;-77
2022/04/18 10:04:10;;;;;;;2.30;2.10;;;;;;;6.78;50.21;94521.06;4972711;28;20051;-77
2022/04/18 10:06:37;;;;;;;2.60;2.40;;;;;;;7.10;49.40;94514.72;4989194;28;20046;-77
2022/04/18 10:09:02;;;;;;;1.92;1.77;;;;;;;7.32;49.08;94516.84;4972080;28;20541;-77
2022/04/18 10:11:27;;;;;;;2.45;2.30;;;;;;;7.17;49.14;94517.25;4990475;28;20022;-77
2022/04/18 10:13:53;;;;;;;2.75;2.00;;;;;;;7.14;49.68;94515.88;4989953;28;20033;-77
2022/04/18 10:16:19;;;;;;;2.35;2.20;;;;;;;7.33;49.35;94521.03;4988711;28;20108;-77
2022/04/18 10:18:50;;;;;;;2.70;2.00;;;;;;;7.39;48.01;94509.81;4988650;28;20060;-77
2022/04/18 10:21:27;;;;;;;1.60;1.50;;;;;;;7.53;47.72;94511.22;5004475;28;20026;-77
2022/04/18 10:24:03;;;;;;;2.83;1.77;;;;;;;7.53;47.56;94500.88;4996195;28;20473;-77
2022/04/18 10:27:00;;;;;;;4.78;1.98;;;;;;;7.22;49.08;94500.06;4989565;28;20466;-77
2022/04/18 10:29:29;;;;;;;2.25;2.15;;;;;;;7.44;48.48;94504.75;5002516;28;20026;-77
2022/04/18 10:31:54;;;;;;;2.10;2.00;;;;;;;7.00;49.61;94506.72;5004328;28;20039;-77
2022/04/18 10:34:22;;;;;;;2.30;2.17;;;;;;;6.96;50.76;94510.72;5011804;28;20042;-77
2022/04/18 10:36:51;;;;;;;2.67;2.13;;;;;;;7.29;49.07;94496.59;4973787;28;20155;-78
2022/04/18 10:39:16;;;;;;;2.50;2.30;;;;;;;7.20;49.29;94512.44;5013905;28;20054;-78
2022/04/18 10:41:43;;;;;;;3.75;2.88;;;;;;;6.93;50.67;94503.41;4989225;28;20030;-78
2022/04/18 10:44:15;;;;;;;2.75;2.55;;;;;;;6.60;50.64;94507.13;5010171;28;20057;-77
2022/04/18 10:47:03;;;;;;;2.42;2.22;;;;;;;6.35;51.38;94503.81;4991309;28;20034;-77
2022/04/18 10:49:30;;;;;;;2.92;2.72;;;;;;;6.29;52.74;94499.47;4974760;28;20419;-78
2022/04/18 10:51:56;;;;;;;2.30;2.20;;;;;;;6.46;51.77;94500.50;4994886;28;20054;-78
2022/04/18 10:54:23;;;;;;;2.42;2.28;;;;;;;6.67;51.21;94506.25;4996059;28;20371;-78
2022/04/18 10:56:51;;;;;;;2.08;1.98;;;;;;;6.63;50.52;94501.53;5004702;28;20093;-77
2022/04/18 10:59:18;;;;;;;5.75;3.03;;;;;;;6.39;50.42;94489.47;4989334;28;20377;-77
2022/04/18 11:01:43;;;;;;;2.30;2.10;;;;;;;6.37;50.58;94501.81;4988772;28;20062;-77
2022/04/18 11:04:12;;;;;;;1.83;1.73;;;;;;;6.47;49.35;94491.75;5013020;28;20057;-77
2022/04/18 11:06:38;;;;;;;2.55;2.25;;;;;;;6.69;48.68;94499.13;5012044;28;20046;-78
2022/04/18 11:09:08;;;;;;;4.43;2.53;;;;;;;6.97;48.13;94491.63;4991590;28;20120;-78
2022/04/18 11:11:34;;;;;;;2.30;2.20;;;;;;;7.25;46.69;94495.47;4989508;28;20398;-78
2022/04/18 11:14:00;;;;;;;2.88;2.25;;;;;;;7.27;46.14;94490.88;4990895;28;20057;-77
2022/04/18 11:16:26;;;;;;;1.67;1.60;;;;;;;7.46;45.50;94487.22;4996772;28;20035;-78
2022/04/18 11:19:08;;;;;;;1.88;1.77;;;;;;;7.73;45.05;94482.47;4991398;28;20098;-78
2022/04/18 11:21:59;;;;;;;2.17;2.05;;;;;;;7.82;44.47;94484.53;5023124;28;20660;-78
2022/04/18 11:24:32;;;;;;;2.10;2.00;;;;;;;7.82;43.16;94474.19;4990539;28;20042;-78
2022/04/18 11:26:58;;;;;;;4.40;2.10;;;;;;;7.97;43.29;94480.69;5013028;28;20482;-78
2022/04/18 11:29:24;;;;;;;1.83;1.73;;;;;;;8.17;42.59;94476.00;4989601;28;20043;-79
2022/04/18 11:31:49;;;;;;;1.80;1.70;;;;;;;8.26;41.81;94482.41;4972279;28;20072;-77
2022/04/18 11:34:15;;;;;;;2.35;2.08;;;;;;;8.20;41.74;94474.78;4990828;28;20049;-77
2022/04/18 11:36:40;;;;;;;2.00;1.90;;;;;;;8.30;42.22;94475.78;5009046;28;20125;-77
2022/04/18 11:39:06;;;;;;;2.25;2.08;;;;;;;8.65;41.28;94473.19;4991006;28;20042;-79
2022/04/18 11:41:31;;;;;;;1.80;1.70;;;;;;;8.85;41.53;94472.81;4993347;28;20385;-79
2022/04/18 11:43:58;;;;;;;2.13;1.92;;;;;;;8.98;41.36;94466.59;5009996;28;20038;-78
2022/04/18 11:46:28;;;;;;;1.80;1.70;;;;;;;9.16;40.10;94470.81;4992662;28;20037;-77
2022/04/18 11:48:54;;;;;;;5.05;2.30;;;;;;;9.35;40.12;94467.03;5015387;28;20030;-77
2022/04/18 11:51:37;;;;;;;7.53;1.80;;;;;;;9.59;39.80;94471.06;4990655;28;20077;-77
2022/04/18 11:54:02;;;;;;;3.22;1.48;;;;;;;9.66;39.72;94462.38;5023257;28;20800;-78
2022/04/18 11:56:28;;;;;;;7.85;1.88;;;;;;;9.79;39.12;94467.28;4990753;28;20104;-79
2022/04/18 11:58:53;;;;;;;2.15;1.95;;;;;;;9.79;38.90;94469.88;5015996;28;20034;-77
2022/04/18 12:06:49;;;;;;;1.90;1.80;;;;;;;9.30;40.56;94453.97;5012256;28;20065;-78